Weather at John Glenn Columbus International Airport

Public forecast

Using degrees Fahrenheit for public forecast. Weather courtesy of forecast.io.

Current aviation weather report (METAR) for John Glenn Columbus International Airport

Retrieved 2021/01/16 01:51 UTC (40 minutes ago):

KCMH 160151Z 00000KT 10SM SCT140 M01/M03 A2965 RMK AO2 SLP048 T10061028

Aviation forecast (TAF) for John Glenn Columbus International Airport

Retrieved 2021-01-16 00:24 UTC (2 hours ago):

TAF KCMH 152323Z 1600/1624 20006KT P6SM VCSH SCT030 BKN050 FM160800 20006KT 5SM BR VCSH OVC025 FM161100 21006KT 3SM BR VCSH OVC009 FM161600 25008KT 3SM BR VCSH OVC013 FM161800 26011G18KT P6SM OVC015